WMKP/PEN METAR and TAF weather

Enter ICAO airport designator
Station Type Date Time Source
WMKP METAR 2022/06/29 00:00 UTC NOAA

WMKP 290000Z 00000KT 8000 FEW017CB 28/26 Q1006 NOSIG


Station Type Date Time Source
WMKP Decoded METAR 2022/06/29 00:00 UTC NOAA

Penang / Bayan Lepas, Malaysia (WMKP) 05-18N 100-16E 4M
Jun 28, 2022 - 08:00 PM EDT / 2022.06.29 0000 UTC
Wind: Calm:0
Visibility: 4 mile(s):0
Sky conditions: mostly clear
Weather: Cumulonimbus clouds observed
Temperature: 82 F (28 C)
Dew Point: 78 F (26 C)
Relative Humidity: 88%
Pressure (altimeter): 29.71 in. Hg (1006 hPa)
ob: WMKP 290000Z 00000KT 8000 FEW017CB 28/26 Q1006 NOSIG
cycle: 0

Station Type Date Time Source
WMKP TAF 2022/06/28 18:09 UTC NOAA

TAF WMKP 281700Z 2818/2918 VRB03KT 9000 FEW025
TEMPO 2822/2901 6000 -TSRA FEW010 FEW017CB
BECMG 2904/2906 22009KT 9999 FEW020
BECMG 2911/2913 VRB03KT

Example: see airport list